createdAt,value
2023-05-02T00:01:43.333Z,100.00
2023-05-02T00:04:11.648Z,100.00
2023-05-02T00:09:59.768Z,100.00
2023-05-02T00:12:28.263Z,100.00
2023-05-02T00:14:57.964Z,100.00
2023-05-02T00:17:26.602Z,100.00
2023-05-02T00:24:07.763Z,100.00
2023-05-02T00:26:36.028Z,100.00
2023-05-02T00:29:04.468Z,100.00
2023-05-02T00:31:34.169Z,100.00
2023-05-02T00:38:26.763Z,100.00
2023-05-02T00:40:54.992Z,100.00
2023-05-02T00:43:23.284Z,100.00
2023-05-02T00:45:52.305Z,100.00
2023-05-02T00:57:10.632Z,100.00
2023-05-02T00:59:38.926Z,100.00
2023-05-02T01:02:19.820Z,100.00
2023-05-02T01:04:53.122Z,100.00
2023-05-02T01:07:28.584Z,100.00
2023-05-02T01:10:03.007Z,100.00
2023-05-02T01:12:36.033Z,100.00
2023-05-02T01:15:05.989Z,100.00
2023-05-02T01:17:35.104Z,100.00
2023-05-02T01:20:05.697Z,100.00
2023-05-02T01:22:33.981Z,100.00
2023-05-02T01:25:06.483Z,100.00
2023-05-02T01:27:51.126Z,100.00
2023-05-02T01:30:20.926Z,100.00
2023-05-02T01:32:49.244Z,100.00
2023-05-02T01:35:18.484Z,100.00
2023-05-02T01:38:11.511Z,100.00
2023-05-02T01:40:39.820Z,100.00
2023-05-02T01:43:08.107Z,100.00
2023-05-02T01:45:37.876Z,100.00
2023-05-02T01:56:49.392Z,100.00
2023-05-02T01:59:20.126Z,100.00
2023-05-02T02:01:51.698Z,100.00
2023-05-02T02:04:21.226Z,100.00
2023-05-02T02:11:12.044Z,100.00
2023-05-02T02:13:42.487Z,100.00
2023-05-02T02:16:10.844Z,100.00
2023-05-02T02:18:40.681Z,100.00
2023-05-02T02:25:03.304Z,100.00
2023-05-02T02:27:31.601Z,100.00
2023-05-02T02:30:00.360Z,100.00
2023-05-02T02:32:28.935Z,100.00
2023-05-02T02:39:00.900Z,100.00
2023-05-02T02:41:29.632Z,100.00
2023-05-02T02:44:01.708Z,100.00
2023-05-02T02:55:25.717Z,100.00
2023-05-02T02:57:59.262Z,100.00
2023-05-02T03:00:28.464Z,100.00
2023-05-02T03:02:57.719Z,100.00
2023-05-02T03:11:00.371Z,100.00
2023-05-02T03:13:30.308Z,100.00
2023-05-02T03:16:28.333Z,100.00
2023-05-02T03:18:57.210Z,100.00
2023-05-02T03:29:44.351Z,100.00
2023-05-02T03:32:13.856Z,100.00
2023-05-02T03:34:44.539Z,100.00
2023-05-02T03:38:03.539Z,100.00
2023-05-02T03:40:32.206Z,100.00
2023-05-02T03:43:00.886Z,100.00
2023-05-02T03:45:34.622Z,100.00
2023-05-02T03:56:26.961Z,100.00
2023-05-02T03:59:06.457Z,100.00
2023-05-02T04:01:36.241Z,100.00
2023-05-02T04:04:05.416Z,100.00
2023-05-02T04:06:38.408Z,100.00
2023-05-02T04:09:09.067Z,100.00
2023-05-02T04:11:47.552Z,100.00
2023-05-02T04:14:15.901Z,100.00
2023-05-02T04:17:11.911Z,100.00
2023-05-02T04:19:47.009Z,100.00
2023-05-02T04:22:16.626Z,100.00
2023-05-02T04:24:50.025Z,100.00
2023-05-02T04:27:43.543Z,100.00
2023-05-02T04:30:15.274Z,100.00
2023-05-02T04:32:49.354Z,100.00
2023-05-02T04:35:17.830Z,100.00
2023-05-02T04:38:13.540Z,100.00
2023-05-02T04:40:43.487Z,100.00
2023-05-02T04:43:11.766Z,100.00
2023-05-02T04:45:58.759Z,100.00
2023-05-02T04:53:23.570Z,100.00
2023-05-02T04:55:52.581Z,100.00
2023-05-02T04:58:21.355Z,100.00
2023-05-02T05:00:56.091Z,100.00
2023-05-02T05:12:09.836Z,100.00
2023-05-02T05:14:38.755Z,100.00
2023-05-02T05:17:07.056Z,100.00
2023-05-02T05:19:35.633Z,100.00
2023-05-02T05:22:28.437Z,100.00
2023-05-02T05:24:57.839Z,100.00
2023-05-02T05:27:32.818Z,100.00
2023-05-02T05:30:02.562Z,100.00
2023-05-02T05:32:31.996Z,100.00
2023-05-02T05:35:00.420Z,100.00
2023-05-02T05:37:30.259Z,100.00
2023-05-02T05:40:01.296Z,100.00
2023-05-02T05:45:58.780Z,100.00
2023-05-02T05:48:27.818Z,100.00
2023-05-02T05:50:56.404Z,100.00
2023-05-02T05:53:24.660Z,100.00
2023-05-02T05:55:53.359Z,100.00
2023-05-02T05:58:23.073Z,100.00
2023-05-02T06:00:55.024Z,100.00
2023-05-02T06:03:23.522Z,100.00
2023-05-02T06:05:52.556Z,100.00
2023-05-02T06:08:21.640Z,100.00
2023-05-02T06:10:49.925Z,100.00
2023-05-02T06:13:18.180Z,100.00
2023-05-02T06:15:48.076Z,100.00
2023-05-02T06:18:17.233Z,100.00
2023-05-02T06:20:45.544Z,100.00
2023-05-02T06:23:13.781Z,100.00
2023-05-02T06:25:42.013Z,100.00
2023-05-02T06:28:10.271Z,100.00
2023-05-02T06:30:38.509Z,100.00
2023-05-02T06:33:08.534Z,100.00
2023-05-02T06:36:26.241Z,100.00
2023-05-02T06:38:54.497Z,100.00
2023-05-02T06:41:23.577Z,100.00
2023-05-02T06:43:51.866Z,100.00
2023-05-02T06:46:20.964Z,100.00
2023-05-02T06:48:50.820Z,100.00
2023-05-02T06:51:19.531Z,100.00
2023-05-02T06:53:47.911Z,100.00
2023-05-02T06:56:16.144Z,100.00
2023-05-02T06:58:44.474Z,100.00
2023-05-02T07:01:13.729Z,100.00
2023-05-02T07:03:42.005Z,100.00
2023-05-02T07:06:11.739Z,100.00
2023-05-02T07:08:58.070Z,100.00
2023-05-02T07:11:26.331Z,100.00
2023-05-02T07:13:54.550Z,100.00
2023-05-02T07:16:23.478Z,100.00
2023-05-02T07:18:51.785Z,100.00
2023-05-02T07:21:21.478Z,100.00
2023-05-02T07:23:49.731Z,100.00
2023-05-02T07:26:18.986Z,100.00
2023-05-02T07:28:47.678Z,100.00
2023-05-02T07:31:17.637Z,100.00
2023-05-02T07:33:47.143Z,100.00
2023-05-02T07:36:15.455Z,100.00
2023-05-02T07:38:45.148Z,100.00
2023-05-02T07:41:35.613Z,100.00
2023-05-02T07:44:04.133Z,100.00
2023-05-02T07:46:32.570Z,100.00
2023-05-02T07:49:00.923Z,100.00
2023-05-02T07:51:29.169Z,100.00
2023-05-02T07:53:59.013Z,100.00
2023-05-02T07:56:27.338Z,100.00
2023-05-02T07:58:56.037Z,100.00
2023-05-02T08:01:24.281Z,100.00
2023-05-02T08:03:52.802Z,100.00
2023-05-02T08:06:21.328Z,100.00
2023-05-02T08:08:49.676Z,100.00
2023-05-02T08:11:21.845Z,100.00
2023-05-02T08:13:50.850Z,100.00
2023-05-02T08:16:19.647Z,100.00
2023-05-02T08:18:48.055Z,100.00
2023-05-02T08:21:16.273Z,100.00
2023-05-02T08:24:09.820Z,100.00
2023-05-02T08:26:39.504Z,100.00
2023-05-02T08:29:07.806Z,100.00
2023-05-02T08:31:36.128Z,100.00
2023-05-02T08:35:09.482Z,100.00
2023-05-02T08:37:38.278Z,100.00
2023-05-02T08:40:07.684Z,100.00
2023-05-02T08:42:37.520Z,100.00
2023-05-02T08:45:06.799Z,100.00
2023-05-02T08:47:35.099Z,100.00
2023-05-02T08:50:03.654Z,100.00
2023-05-02T08:52:32.700Z,100.00
2023-05-02T08:55:02.268Z,100.00
2023-05-02T08:57:31.225Z,100.00
2023-05-02T09:00:00.879Z,100.00
2023-05-02T09:02:46.493Z,100.00
2023-05-02T09:05:14.993Z,100.00
2023-05-02T09:07:47.230Z,100.00
2023-05-02T09:10:15.547Z,100.00
2023-05-02T09:12:43.809Z,100.00
2023-05-02T09:15:14.506Z,100.00
2023-05-02T09:17:43.555Z,100.00
2023-05-02T09:20:12.930Z,100.00
2023-05-02T09:22:41.357Z,100.00
2023-05-02T09:25:10.525Z,100.00
2023-05-02T09:27:52.272Z,100.00
2023-05-02T09:30:23.720Z,100.00
2023-05-02T09:32:52.786Z,100.00
2023-05-02T09:35:24.821Z,100.00
2023-05-02T09:39:07.080Z,100.00
2023-05-02T09:41:41.217Z,100.00
2023-05-02T09:44:11.275Z,100.00
2023-05-02T09:46:45.280Z,100.00
2023-05-02T09:54:33.362Z,100.00
2023-05-02T09:57:02.219Z,100.00
2023-05-02T09:59:30.746Z,100.00
2023-05-02T10:02:01.157Z,100.00
2023-05-02T10:04:30.583Z,100.00
2023-05-02T10:06:58.925Z,100.00
2023-05-02T10:09:27.290Z,100.00
2023-05-02T10:11:56.574Z,100.00
2023-05-02T10:14:27.833Z,100.00
2023-05-02T10:17:09.764Z,100.00
2023-05-02T10:19:40.634Z,99.88
2023-05-02T10:22:09.026Z,97.11
2023-05-02T10:24:37.302Z,96.43
2023-05-02T10:27:30.802Z,96.49
2023-05-02T10:29:59.801Z,96.96
2023-05-02T10:32:30.729Z,93.93
2023-05-02T10:34:59.352Z,92.42
2023-05-02T10:40:56.320Z,92.78
2023-05-02T10:43:28.382Z,93.30
2023-05-02T10:45:57.065Z,92.11
2023-05-02T10:48:27.238Z,92.26
2023-05-02T10:50:56.017Z,89.59
2023-05-02T10:53:36.535Z,91.45
2023-05-02T10:56:15.968Z,91.07
2023-05-02T10:58:44.352Z,90.87
2023-05-02T11:01:36.992Z,90.30
2023-05-02T11:04:08.080Z,90.35
2023-05-02T11:06:37.217Z,89.13
2023-05-02T11:09:35.485Z,90.96
2023-05-02T11:12:04.948Z,89.84
2023-05-02T11:14:52.040Z,89.81
2023-05-02T11:17:21.176Z,90.80
2023-05-02T11:23:44.432Z,91.53
2023-05-02T11:26:23.266Z,90.81
2023-05-02T11:28:51.668Z,90.29
2023-05-02T11:35:45.811Z,89.52
2023-05-02T11:38:15.297Z,88.67
2023-05-02T11:40:55.997Z,88.40
2023-05-02T11:43:25.293Z,89.80
2023-05-02T11:46:43.713Z,87.97
2023-05-02T11:49:14.898Z,87.59
2023-05-02T11:51:43.609Z,85.08
2023-05-02T11:54:19.068Z,84.98
2023-05-02T11:57:49.195Z,84.35
2023-05-02T12:00:19.879Z,81.78
2023-05-02T12:02:49.043Z,82.22
2023-05-02T12:05:29.437Z,82.54
2023-05-02T12:08:47.380Z,85.54
2023-05-02T12:11:16.746Z,84.27
2023-05-02T12:13:48.961Z,85.57
2023-05-02T12:16:18.721Z,85.71
2023-05-02T12:18:47.105Z,80.38
2023-05-02T12:21:15.348Z,83.50
2023-05-02T12:23:43.628Z,81.94
2023-05-02T12:26:19.076Z,80.55
2023-05-02T12:29:47.932Z,76.76
2023-05-02T12:32:17.845Z,80.55
2023-05-02T12:34:47.133Z,80.22
2023-05-02T12:37:15.365Z,79.23
2023-05-02T12:44:08.215Z,80.33
2023-05-02T12:46:36.662Z,80.18
2023-05-02T12:49:08.218Z,76.20
2023-05-02T12:51:36.667Z,75.92
2023-05-02T12:54:05.445Z,77.67
2023-05-02T12:56:40.477Z,78.23
2023-05-02T12:59:08.980Z,77.92
2023-05-02T13:01:37.249Z,80.33
2023-05-02T13:04:07.216Z,79.24
2023-05-02T13:06:38.139Z,76.40
2023-05-02T13:09:08.352Z,76.66
2023-05-02T13:11:36.615Z,73.42
2023-05-02T13:18:29.259Z,78.25
2023-05-02T13:20:59.500Z,78.43
2023-05-02T13:23:27.700Z,76.53
2023-05-02T13:25:55.959Z,75.14
2023-05-02T13:28:49.147Z,74.41
2023-05-02T13:31:17.417Z,74.54
2023-05-02T13:33:45.711Z,72.08
2023-05-02T13:36:15.818Z,74.37
2023-05-02T13:38:44.538Z,73.07
2023-05-02T13:45:36.981Z,74.25
2023-05-02T13:48:05.780Z,73.01
2023-05-02T13:50:37.346Z,74.43
2023-05-02T13:53:07.518Z,75.31
2023-05-02T13:56:25.191Z,72.94
2023-05-02T13:58:53.462Z,73.20
2023-05-02T14:01:21.795Z,76.38
2023-05-02T14:03:50.239Z,76.75
2023-05-02T14:06:18.575Z,83.54
2023-05-02T14:08:48.575Z,90.22
2023-05-02T14:11:16.943Z,95.16
2023-05-02T14:13:45.290Z,99.24
2023-05-02T14:16:13.647Z,100.00
2023-05-02T14:18:41.867Z,100.00
2023-05-02T14:21:10.414Z,100.00
2023-05-02T14:23:38.751Z,100.00
2023-05-02T14:26:08.382Z,100.00
2023-05-02T14:28:38.413Z,100.00
2023-05-02T14:31:08.240Z,100.00
2023-05-02T14:33:36.899Z,100.00
2023-05-02T14:36:05.785Z,100.00
2023-05-02T14:39:05.178Z,100.00
2023-05-02T14:41:35.354Z,100.00
2023-05-02T14:44:03.938Z,100.00
2023-05-02T14:46:32.486Z,100.00
2023-05-02T14:49:00.951Z,100.00
2023-05-02T14:51:33.126Z,100.00
2023-05-02T14:54:01.534Z,100.00
2023-05-02T14:56:29.869Z,100.00
2023-05-02T14:59:00.447Z,100.00
2023-05-02T15:01:29.188Z,100.00
2023-05-02T15:04:06.495Z,100.00
2023-05-02T15:06:36.632Z,100.00
2023-05-02T15:09:07.660Z,100.00
2023-05-02T15:11:36.058Z,100.00
2023-05-02T15:18:30.810Z,100.00
2023-05-02T15:20:59.612Z,100.00
2023-05-02T15:23:28.222Z,100.00
2023-05-02T15:25:56.471Z,100.00
2023-05-02T15:28:49.870Z,100.00
2023-05-02T15:31:18.514Z,100.00
2023-05-02T15:33:48.471Z,100.00
2023-05-02T15:36:17.120Z,100.00
2023-05-02T15:39:56.137Z,100.00
2023-05-02T15:42:24.467Z,100.00
2023-05-02T15:44:54.086Z,100.00
2023-05-02T15:47:23.351Z,100.00
2023-05-02T15:53:01.787Z,100.00
2023-05-02T15:55:30.659Z,100.00
2023-05-02T15:57:59.000Z,100.00
2023-05-02T16:00:27.422Z,100.00
2023-05-02T16:02:55.989Z,100.00
2023-05-02T16:05:25.738Z,100.00
2023-05-02T16:07:54.106Z,100.00
2023-05-02T16:10:22.638Z,100.00
2023-05-02T16:12:51.462Z,100.00
2023-05-02T16:15:19.696Z,100.00
2023-05-02T16:17:49.106Z,100.00
2023-05-02T16:20:17.395Z,100.00
2023-05-02T16:30:53.040Z,100.00
2023-05-02T16:33:22.516Z,100.00
2023-05-02T16:35:50.904Z,100.00
2023-05-02T16:38:44.549Z,100.00
2023-05-02T16:41:13.239Z,100.00
2023-05-02T16:43:41.500Z,100.00
2023-05-02T16:46:11.219Z,100.00
2023-05-02T16:52:03.622Z,100.00
2023-05-02T16:54:32.255Z,100.00
2023-05-02T16:57:02.594Z,100.00
2023-05-02T16:59:31.176Z,100.00
2023-05-02T17:02:00.891Z,100.00
2023-05-02T17:04:29.134Z,100.00
2023-05-02T17:06:57.504Z,100.00
2023-05-02T17:09:26.153Z,100.00
2023-05-02T17:12:28.317Z,100.00
2023-05-02T17:14:56.559Z,100.00
2023-05-02T17:17:26.197Z,100.00
2023-05-02T17:19:54.448Z,100.00
2023-05-02T17:22:23.057Z,100.00
2023-05-02T17:24:54.118Z,100.00
2023-05-02T17:27:22.433Z,100.00
2023-05-02T17:29:50.845Z,100.00
2023-05-02T17:32:19.068Z,100.00
2023-05-02T17:35:14.446Z,100.00
2023-05-02T17:37:43.101Z,100.00
2023-05-02T17:40:12.391Z,100.00
2023-05-02T17:42:40.805Z,100.00
2023-05-02T17:47:54.281Z,100.00
2023-05-02T17:50:24.393Z,100.00
2023-05-02T17:52:52.847Z,100.00
2023-05-02T17:55:21.334Z,100.00
2023-05-02T17:57:55.703Z,100.00
2023-05-02T18:00:24.211Z,100.00
2023-05-02T18:02:52.909Z,100.00
2023-05-02T18:05:22.469Z,100.00
2023-05-02T18:07:52.525Z,100.00
2023-05-02T18:10:20.968Z,100.00
2023-05-02T18:12:49.212Z,100.00
2023-05-02T18:15:17.805Z,100.00
2023-05-02T18:17:46.120Z,100.00
2023-05-02T18:20:40.454Z,100.00
2023-05-02T18:23:10.193Z,100.00
2023-05-02T18:25:38.483Z,100.00
2023-05-02T18:28:06.966Z,100.00
2023-05-02T18:30:57.299Z,100.00
2023-05-02T18:33:25.542Z,100.00
2023-05-02T18:35:53.773Z,100.00
2023-05-02T18:38:23.462Z,100.00
2023-05-02T18:40:51.737Z,100.00
2023-05-02T18:43:20.255Z,100.00
2023-05-02T18:45:48.660Z,100.00
2023-05-02T18:48:17.055Z,100.00
2023-05-02T18:50:45.325Z,100.00
2023-05-02T18:54:23.919Z,100.00
2023-05-02T18:56:54.120Z,100.00
2023-05-02T18:59:22.428Z,100.00
2023-05-02T19:01:50.936Z,100.00
2023-05-02T19:04:19.624Z,100.00
2023-05-02T19:06:48.017Z,100.00
2023-05-02T19:09:17.929Z,100.00
2023-05-02T19:11:46.217Z,100.00
2023-05-02T19:14:15.877Z,100.00
2023-05-02T19:21:10.411Z,100.00
2023-05-02T19:23:38.628Z,100.00
2023-05-02T19:26:11.987Z,100.00
2023-05-02T19:28:40.284Z,100.00
2023-05-02T19:31:11.719Z,100.00
2023-05-02T19:33:40.401Z,100.00
2023-05-02T19:36:08.941Z,100.00
2023-05-02T19:38:37.177Z,100.00
2023-05-02T19:45:29.748Z,100.00
2023-05-02T19:47:59.871Z,100.00
2023-05-02T19:50:28.200Z,100.00
2023-05-02T19:52:56.727Z,100.00
2023-05-02T19:59:26.347Z,100.00
2023-05-02T20:01:54.619Z,100.00
2023-05-02T20:04:25.948Z,100.00
2023-05-02T20:07:00.206Z,100.00
2023-05-02T20:09:29.682Z,100.00
2023-05-02T20:11:58.053Z,100.00
2023-05-02T20:14:26.270Z,100.00
2023-05-02T20:17:01.356Z,100.00
2023-05-02T20:20:22.084Z,100.00
2023-05-02T20:22:50.315Z,100.00
2023-05-02T20:25:18.662Z,100.00
2023-05-02T20:27:46.947Z,100.00
2023-05-02T20:39:07.545Z,100.00
2023-05-02T20:41:36.293Z,100.00
2023-05-02T20:44:04.696Z,100.00
2023-05-02T20:55:10.770Z,100.00
2023-05-02T20:57:39.266Z,100.00
2023-05-02T21:00:11.358Z,100.00
2023-05-02T21:02:39.752Z,100.00
2023-05-02T21:05:14.302Z,100.00
2023-05-02T21:07:42.540Z,100.00
2023-05-02T21:10:12.639Z,100.00
2023-05-02T21:12:41.166Z,100.00
2023-05-02T21:15:09.849Z,100.00
2023-05-02T21:26:28.961Z,100.00
2023-05-02T21:28:57.268Z,100.00
2023-05-02T21:31:25.607Z,100.00
2023-05-02T21:33:53.949Z,100.00
2023-05-02T21:41:38.947Z,100.00
2023-05-02T21:44:11.591Z,100.00
2023-05-02T21:46:39.890Z,100.00
2023-05-02T21:49:08.229Z,100.00
2023-05-02T21:55:56.194Z,100.00
2023-05-02T21:58:24.508Z,100.00
2023-05-02T22:00:54.289Z,100.00
2023-05-02T22:03:23.486Z,100.00
2023-05-02T22:10:04.319Z,100.00
2023-05-02T22:12:32.709Z,100.00
2023-05-02T22:15:01.553Z,100.00
2023-05-02T22:17:31.814Z,100.00
2023-05-02T22:28:12.330Z,100.00
2023-05-02T22:30:40.686Z,100.00
2023-05-02T22:33:10.612Z,100.00
2023-05-02T22:40:04.314Z,100.00
2023-05-02T22:42:32.810Z,100.00
2023-05-02T22:45:01.627Z,100.00
2023-05-02T22:47:30.345Z,100.00
2023-05-02T22:50:00.689Z,100.00
2023-05-02T22:57:42.035Z,100.00
2023-05-02T23:00:12.466Z,100.00
2023-05-02T23:02:40.918Z,100.00
2023-05-02T23:05:11.122Z,100.00
2023-05-02T23:12:11.661Z,100.00
2023-05-02T23:14:39.980Z,100.00
2023-05-02T23:17:08.188Z,100.00
2023-05-02T23:19:36.461Z,100.00
2023-05-02T23:25:37.860Z,100.00
2023-05-02T23:28:06.501Z,100.00
2023-05-02T23:30:34.831Z,100.00
2023-05-02T23:33:03.123Z,100.00
2023-05-02T23:44:08.852Z,100.00
2023-05-02T23:46:37.236Z,100.00
2023-05-02T23:49:05.611Z,100.00
2023-05-02T23:51:34.221Z,100.00
2023-05-02T23:58:27.315Z,100.00
